createdAt,value
2017-02-11T00:00:12.018Z,23.72
2017-02-11T00:00:32.409Z,23.68
2017-02-11T00:00:52.883Z,23.71
2017-02-11T00:01:13.346Z,23.72
2017-02-11T00:01:33.111Z,23.71
2017-02-11T00:01:53.544Z,23.72
2017-02-11T00:02:13.956Z,23.8
2017-02-11T00:02:34.913Z,23.78
2017-02-11T00:02:55.431Z,23.87
2017-02-11T00:03:17.368Z,23.87
2017-02-11T00:03:37.783Z,23.85
2017-02-11T00:03:58.170Z,23.78
2017-02-11T00:04:18.580Z,23.82
2017-02-11T00:04:38.976Z,23.65
2017-02-11T00:04:59.608Z,23.87
2017-02-11T00:05:20.220Z,23.82
2017-02-11T00:05:40.639Z,23.8
2017-02-11T00:06:01.037Z,23.86
2017-02-11T00:06:21.414Z,23.9
2017-02-11T00:06:41.804Z,23.86
2017-02-11T00:07:01.590Z,23.78
2017-02-11T00:07:21.986Z,23.75
2017-02-11T00:07:42.365Z,23.74
2017-02-11T00:08:02.192Z,23.75
2017-02-11T00:08:22.612Z,23.83
2017-02-11T00:08:42.992Z,23.85
2017-02-11T00:09:03.424Z,23.78
2017-02-11T00:09:23.850Z,23.87
2017-02-11T00:09:43.688Z,23.93
2017-02-11T00:10:04.074Z,23.95
2017-02-11T00:10:24.493Z,24.01
2017-02-11T00:10:44.993Z,24
2017-02-11T00:11:05.478Z,23.93
2017-02-11T00:11:25.877Z,23.97
2017-02-11T00:11:46.272Z,23.8
2017-02-11T00:12:06.661Z,23.78
2017-02-11T00:12:27.079Z,23.78
2017-02-11T00:12:47.490Z,23.65
2017-02-11T00:13:07.929Z,23.72
2017-02-11T00:13:28.313Z,23.78
2017-02-11T00:13:48.774Z,23.71
2017-02-11T00:14:09.187Z,23.71
2017-02-11T00:14:29.592Z,23.72
2017-02-11T00:14:49.989Z,23.83
2017-02-11T00:15:10.412Z,23.78
2017-02-11T00:15:30.840Z,23.6
2017-02-11T00:15:51.235Z,23.48
2017-02-11T00:16:10.980Z,23.55
2017-02-11T00:16:30.776Z,23.45
2017-02-11T00:16:51.159Z,23.56
2017-02-11T00:17:11.577Z,23.65
2017-02-11T00:17:31.961Z,23.52
2017-02-11T00:17:52.406Z,23.56
2017-02-11T00:18:12.809Z,23.67
2017-02-11T00:18:33.208Z,23.56
2017-02-11T00:18:53.618Z,23.48
2017-02-11T00:19:14.004Z,23.42
2017-02-11T00:19:34.387Z,23.43
2017-02-11T00:19:55.081Z,23.34
2017-02-11T00:20:14.856Z,23.37
2017-02-11T00:20:35.263Z,23.48
2017-02-11T00:20:55.689Z,23.35
2017-02-11T00:21:16.122Z,23.38
2017-02-11T00:21:36.534Z,23.38
2017-02-11T00:21:56.924Z,23.43
2017-02-11T00:22:17.280Z,23.46
2017-02-11T00:22:37.754Z,23.53
2017-02-11T00:22:58.155Z,23.43
2017-02-11T00:23:18.543Z,23.43
2017-02-11T00:23:39.017Z,23.42
2017-02-11T00:23:59.438Z,23.48
2017-02-11T00:24:19.819Z,23.42
2017-02-11T00:24:40.194Z,23.48
2017-02-11T00:25:00.604Z,23.55
2017-02-11T00:25:20.995Z,23.6
2017-02-11T00:25:41.355Z,23.5
2017-02-11T00:26:01.759Z,23.45
2017-02-11T00:26:22.141Z,23.45
2017-02-11T00:26:42.539Z,23.49
2017-02-11T00:27:02.937Z,23.6
2017-02-11T00:27:23.317Z,23.53
2017-02-11T00:27:43.721Z,23.55
2017-02-11T00:28:04.130Z,23.46
2017-02-11T00:28:24.501Z,23.43
2017-02-11T00:28:44.898Z,23.5
2017-02-11T00:29:05.295Z,23.63
2017-02-11T00:29:25.059Z,23.53
2017-02-11T00:29:45.388Z,23.49
2017-02-11T00:30:06.036Z,23.56
2017-02-11T00:30:25.802Z,23.63
2017-02-11T00:30:46.215Z,23.65
2017-02-11T00:31:05.966Z,23.61
2017-02-11T00:31:26.382Z,23.68
2017-02-11T00:31:46.171Z,23.61
2017-02-11T00:32:06.551Z,23.63
2017-02-11T00:32:26.986Z,23.55
2017-02-11T00:32:47.395Z,23.55
2017-02-11T00:33:07.854Z,23.49
2017-02-11T00:33:28.305Z,23.55
2017-02-11T00:33:48.122Z,23.63
2017-02-11T00:34:07.903Z,23.61
2017-02-11T00:34:28.279Z,23.74
2017-02-11T00:34:48.724Z,23.65
2017-02-11T00:35:09.436Z,23.67
2017-02-11T00:35:29.827Z,23.7
2017-02-11T00:35:50.211Z,23.65
2017-02-11T00:36:09.995Z,23.68
2017-02-11T00:36:29.761Z,23.79
2017-02-11T00:36:50.161Z,23.8
2017-02-11T00:37:10.534Z,23.79
2017-02-11T00:37:30.941Z,23.68
2017-02-11T00:37:51.365Z,23.78
2017-02-11T00:38:11.784Z,23.72
2017-02-11T00:38:32.203Z,23.72
2017-02-11T00:38:52.652Z,23.67
2017-02-11T00:39:13.078Z,23.61
2017-02-11T00:39:33.483Z,23.64
2017-02-11T00:39:54.164Z,23.63
2017-02-11T00:40:13.962Z,23.68
2017-02-11T00:40:34.392Z,23.65
2017-02-11T00:40:54.798Z,23.67
2017-02-11T00:41:14.578Z,23.65
2017-02-11T00:41:34.971Z,23.6
2017-02-11T00:41:54.760Z,23.48
2017-02-11T00:42:15.225Z,23.5
2017-02-11T00:42:35.626Z,23.46
2017-02-11T00:42:56.084Z,23.49
2017-02-11T00:43:16.541Z,23.48
2017-02-11T00:43:36.973Z,23.56
2017-02-11T00:43:56.729Z,23.42
2017-02-11T00:44:17.124Z,23.5
2017-02-11T00:44:37.550Z,23.48
2017-02-11T00:44:58.061Z,23.53
2017-02-11T00:45:18.417Z,23.53
2017-02-11T00:45:38.874Z,23.48
2017-02-11T00:45:59.282Z,23.45
2017-02-11T00:46:19.705Z,23.63
2017-02-11T00:46:40.108Z,23.61
2017-02-11T00:47:00.541Z,23.65
2017-02-11T00:47:21.000Z,23.74
2017-02-11T00:47:41.456Z,23.65
2017-02-11T00:48:01.846Z,23.7
2017-02-11T00:48:21.582Z,23.71
2017-02-11T00:48:42.077Z,23.7
2017-02-11T00:49:01.971Z,23.75
2017-02-11T00:49:22.369Z,23.61
2017-02-11T00:49:42.781Z,23.63
2017-02-11T00:50:03.295Z,23.6
2017-02-11T00:50:23.683Z,23.67
2017-02-11T00:50:44.152Z,23.65
2017-02-11T00:51:04.595Z,23.61
2017-02-11T00:51:24.335Z,23.72
2017-02-11T00:51:44.766Z,23.79
2017-02-11T00:52:05.173Z,23.72
2017-02-11T00:52:25.558Z,23.63
2017-02-11T00:52:45.981Z,23.65
2017-02-11T00:53:06.410Z,23.65
2017-02-11T00:53:26.814Z,23.71
2017-02-11T00:53:47.194Z,23.64
2017-02-11T00:54:07.575Z,23.6
2017-02-11T00:54:27.940Z,23.63
2017-02-11T00:54:48.320Z,23.65
2017-02-11T00:55:08.897Z,23.61
2017-02-11T00:55:29.322Z,23.63
2017-02-11T00:55:49.723Z,23.58
2017-02-11T00:56:10.154Z,23.53
2017-02-11T00:56:29.910Z,23.48
2017-02-11T00:56:50.304Z,23.48
2017-02-11T00:57:10.050Z,23.52
2017-02-11T00:57:29.777Z,23.49
2017-02-11T00:57:49.575Z,23.55
2017-02-11T00:58:08.704Z,23.45
2017-02-11T00:58:29.163Z,23.52
2017-02-11T00:58:49.583Z,23.63
2017-02-11T00:59:09.998Z,23.55
2017-02-11T00:59:30.373Z,23.46
2017-02-11T00:59:50.762Z,23.58
2017-02-11T01:00:11.209Z,23.64
2017-02-11T01:00:31.617Z,23.68
2017-02-11T01:00:52.020Z,23.74
2017-02-11T01:01:12.411Z,23.79
2017-02-11T01:01:32.800Z,23.75
2017-02-11T01:01:53.162Z,23.82
2017-02-11T01:02:13.563Z,23.78
2017-02-11T01:02:33.296Z,23.71
2017-02-11T01:02:53.729Z,23.8
2017-02-11T01:03:14.120Z,23.75
2017-02-11T01:03:33.868Z,23.82
2017-02-11T01:03:53.633Z,23.79
2017-02-11T01:04:12.757Z,23.92
2017-02-11T01:04:33.145Z,23.87
2017-02-11T01:04:53.661Z,23.79
2017-02-11T01:05:14.036Z,23.7
2017-02-11T01:05:34.423Z,23.82
2017-02-11T01:05:54.836Z,23.79
2017-02-11T01:06:15.258Z,23.85
2017-02-11T01:06:35.630Z,23.92
2017-02-11T01:06:56.002Z,23.8
2017-02-11T01:07:16.416Z,23.83
2017-02-11T01:07:36.776Z,23.83
2017-02-11T01:07:57.173Z,23.82
2017-02-11T01:08:17.577Z,23.79
2017-02-11T01:08:37.941Z,23.92
2017-02-11T01:08:57.771Z,23.89
2017-02-11T01:09:18.191Z,23.93
2017-02-11T01:09:38.622Z,23.97
2017-02-11T01:09:59.018Z,23.95
2017-02-11T01:10:19.414Z,24.04
2017-02-11T01:10:39.817Z,23.92
2017-02-11T01:10:59.600Z,23.95
2017-02-11T01:11:20.008Z,23.89
2017-02-11T01:11:39.783Z,23.87
2017-02-11T01:12:00.226Z,23.82
2017-02-11T01:12:19.978Z,23.8
2017-02-11T01:12:40.358Z,23.82
2017-02-11T01:13:00.749Z,23.8
2017-02-11T01:13:21.157Z,23.8
2017-02-11T01:13:41.624Z,23.61
2017-02-11T01:14:01.997Z,23.74
2017-02-11T01:14:21.732Z,23.64
2017-02-11T01:14:42.118Z,23.63
2017-02-11T01:15:02.792Z,23.67
2017-02-11T01:15:23.227Z,23.6
2017-02-11T01:15:43.649Z,23.63
2017-02-11T01:16:04.032Z,23.61
2017-02-11T01:16:24.425Z,23.65
2017-02-11T01:16:44.195Z,23.74
2017-02-11T01:17:04.653Z,23.65
2017-02-11T01:17:25.068Z,23.67
2017-02-11T01:17:45.430Z,23.65
2017-02-11T01:18:05.195Z,23.63
2017-02-11T01:18:25.568Z,23.74
2017-02-11T01:18:45.959Z,23.61
2017-02-11T01:19:05.733Z,23.68
2017-02-11T01:19:26.127Z,23.67
2017-02-11T01:19:46.512Z,23.65
2017-02-11T01:20:07.052Z,23.61
2017-02-11T01:20:26.158Z,23.64
2017-02-11T01:20:46.509Z,23.64
2017-02-11T01:21:06.936Z,23.5
2017-02-11T01:21:27.354Z,23.61
2017-02-11T01:21:47.801Z,23.56
2017-02-11T01:22:07.580Z,23.45
2017-02-11T01:22:27.991Z,23.48
2017-02-11T01:22:48.401Z,23.49
2017-02-11T01:23:08.822Z,23.48
2017-02-11T01:23:29.240Z,23.48
2017-02-11T01:23:49.608Z,23.5
2017-02-11T01:24:10.014Z,23.55
2017-02-11T01:24:30.455Z,23.48
2017-02-11T01:24:50.865Z,23.49
2017-02-11T01:25:10.775Z,23.52
2017-02-11T01:25:30.506Z,23.6
2017-02-11T01:25:50.892Z,23.49
2017-02-11T01:26:10.623Z,23.53
2017-02-11T01:26:31.012Z,23.52
2017-02-11T01:26:51.404Z,23.5
2017-02-11T01:27:11.789Z,23.46
2017-02-11T01:27:32.175Z,23.45
2017-02-11T01:27:51.902Z,23.52
2017-02-11T01:28:12.303Z,23.55
2017-02-11T01:28:32.695Z,23.52
2017-02-11T01:28:53.094Z,23.48
2017-02-11T01:29:13.529Z,23.49
2017-02-11T01:29:33.964Z,23.53
2017-02-11T01:29:54.381Z,23.46
2017-02-11T01:30:15.200Z,23.52
2017-02-11T01:30:34.935Z,23.43
2017-02-11T01:30:55.332Z,23.52
2017-02-11T01:31:15.739Z,23.46
2017-02-11T01:31:36.202Z,23.63
2017-02-11T01:31:56.649Z,23.48
2017-02-11T01:32:17.066Z,23.67
2017-02-11T01:32:37.460Z,23.67
2017-02-11T01:32:57.860Z,23.63
2017-02-11T01:33:17.629Z,23.67
2017-02-11T01:33:38.040Z,23.75
2017-02-11T01:33:58.497Z,23.67
2017-02-11T01:34:18.896Z,23.78
2017-02-11T01:34:39.342Z,23.78
2017-02-11T01:34:59.144Z,23.72
2017-02-11T01:35:19.753Z,23.71
2017-02-11T01:35:40.191Z,23.75
2017-02-11T01:36:00.531Z,23.78
2017-02-11T01:36:20.933Z,23.79
2017-02-11T01:36:41.345Z,23.8
2017-02-11T01:37:01.769Z,23.78
2017-02-11T01:37:22.147Z,23.82
2017-02-11T01:37:42.623Z,23.75
2017-02-11T01:38:03.013Z,23.8
2017-02-11T01:38:23.402Z,23.79
2017-02-11T01:38:43.787Z,23.78
2017-02-11T01:39:04.230Z,23.8
2017-02-11T01:39:24.628Z,23.82
2017-02-11T01:39:45.047Z,23.78
2017-02-11T01:40:05.469Z,23.9
2017-02-11T01:40:24.582Z,23.9
2017-02-11T01:40:44.968Z,23.79
2017-02-11T01:41:05.415Z,23.78
2017-02-11T01:41:25.897Z,23.8
2017-02-11T01:41:46.326Z,23.79
2017-02-11T01:42:06.755Z,23.83
2017-02-11T01:42:25.898Z,23.82
2017-02-11T01:42:46.318Z,23.85
2017-02-11T01:43:06.746Z,23.85
2017-02-11T01:43:27.155Z,23.75
2017-02-11T01:43:47.593Z,23.82
2017-02-11T01:44:08.021Z,23.79
2017-02-11T01:44:27.888Z,23.82
2017-02-11T01:44:48.327Z,23.82
2017-02-11T01:45:08.789Z,23.8
2017-02-11T01:45:29.432Z,23.82
2017-02-11T01:45:49.801Z,23.78
2017-02-11T01:46:10.152Z,23.92
2017-02-11T01:46:30.570Z,23.8
2017-02-11T01:46:50.979Z,23.79
2017-02-11T01:47:11.364Z,23.79
2017-02-11T01:47:31.820Z,23.7
2017-02-11T01:47:52.420Z,23.67
2017-02-11T01:48:12.183Z,23.78
2017-02-11T01:48:32.571Z,23.68
2017-02-11T01:48:52.961Z,23.75
2017-02-11T01:49:13.394Z,23.71
2017-02-11T01:49:33.797Z,23.8
2017-02-11T01:49:54.209Z,23.7
2017-02-11T01:50:14.644Z,23.78
2017-02-11T01:50:34.463Z,23.68
2017-02-11T01:50:54.928Z,23.6
2017-02-11T01:51:15.346Z,23.75
2017-02-11T01:51:35.743Z,23.67
2017-02-11T01:51:56.156Z,23.75
2017-02-11T01:52:16.551Z,23.68
2017-02-11T01:52:36.316Z,23.72
2017-02-11T01:52:56.739Z,23.71
2017-02-11T01:53:17.135Z,23.7
2017-02-11T01:53:37.512Z,23.78
2017-02-11T01:53:57.912Z,23.82
2017-02-11T01:54:18.329Z,23.87
2017-02-11T01:54:38.750Z,23.87
2017-02-11T01:54:59.192Z,23.89
2017-02-11T01:55:19.118Z,23.93
2017-02-11T01:55:39.577Z,24.01
2017-02-11T01:55:59.982Z,24.02
2017-02-11T01:56:20.390Z,23.98
2017-02-11T01:56:40.822Z,24
2017-02-11T01:57:01.270Z,24.01
2017-02-11T01:57:21.696Z,23.98
2017-02-11T01:57:42.147Z,23.93
2017-02-11T01:58:02.643Z,23.85
2017-02-11T01:58:23.055Z,23.89
2017-02-11T01:58:43.572Z,23.82
2017-02-11T01:59:03.962Z,23.78
2017-02-11T01:59:24.367Z,23.82
2017-02-11T01:59:44.770Z,23.75
2017-02-11T02:00:05.171Z,23.85
2017-02-11T02:00:25.598Z,23.83
2017-02-11T02:00:45.946Z,23.78
2017-02-11T02:01:06.377Z,23.82
2017-02-11T02:01:26.148Z,23.85
2017-02-11T02:01:46.573Z,23.93
2017-02-11T02:02:08.708Z,23.78
2017-02-11T02:02:29.087Z,23.83
2017-02-11T02:02:49.489Z,23.89
2017-02-11T02:03:10.272Z,23.8
2017-02-11T02:03:30.648Z,23.87
2017-02-11T02:03:51.049Z,23.86
2017-02-11T02:04:11.393Z,23.87
2017-02-11T02:04:31.141Z,23.9
2017-02-11T02:04:51.533Z,23.9
2017-02-11T02:05:12.113Z,23.9
2017-02-11T02:05:31.887Z,23.92
2017-02-11T02:05:52.282Z,23.92
2017-02-11T02:06:12.696Z,23.93
2017-02-11T02:06:32.501Z,23.9
2017-02-11T02:06:56.363Z,23.98
2017-02-11T02:07:16.751Z,23.92
2017-02-11T02:07:37.194Z,24.01
2017-02-11T02:07:57.592Z,23.89
2017-02-11T02:08:17.993Z,23.93
2017-02-11T02:08:41.399Z,23.92
2017-02-11T02:09:01.868Z,23.78
2017-02-11T02:09:22.277Z,23.78
2017-02-11T02:09:42.705Z,23.74
2017-02-11T02:10:36.863Z,23.72
2017-02-11T02:10:57.261Z,23.65
2017-02-11T02:12:00.654Z,23.65
2017-02-11T02:12:21.077Z,23.64
2017-02-11T02:12:41.424Z,23.53
2017-02-11T02:13:01.844Z,23.55
2017-02-11T02:13:56.463Z,23.56
2017-02-11T02:14:16.836Z,23.52
2017-02-11T02:14:51.004Z,23.45
2017-02-11T02:15:11.482Z,23.5
2017-02-11T02:15:31.918Z,23.48
2017-02-11T02:15:52.366Z,23.43
2017-02-11T02:16:12.801Z,23.35
2017-02-11T02:16:33.228Z,23.37
2017-02-11T02:16:53.615Z,23.38
2017-02-11T02:17:13.979Z,23.45
2017-02-11T02:17:33.756Z,23.49
2017-02-11T02:17:54.119Z,23.45
2017-02-11T02:18:14.514Z,23.42
2017-02-11T02:18:34.234Z,23.48
2017-02-11T02:18:54.608Z,23.37
2017-02-11T02:19:15.013Z,23.43
2017-02-11T02:20:09.724Z,23.42
2017-02-11T02:20:30.121Z,23.38
2017-02-11T02:20:50.541Z,23.52
2017-02-11T02:21:10.865Z,23.4
2017-02-11T02:21:31.200Z,23.43
2017-02-11T02:21:51.596Z,23.4
2017-02-11T02:22:12.004Z,23.45
2017-02-11T02:22:32.408Z,23.43
2017-02-11T02:22:52.782Z,23.4
2017-02-11T02:23:12.494Z,23.46
2017-02-11T02:23:32.239Z,23.38
2017-02-11T02:23:52.639Z,23.46
2017-02-11T02:24:13.020Z,23.46
2017-02-11T02:24:33.412Z,23.52
2017-02-11T02:24:53.777Z,23.56
2017-02-11T02:25:13.498Z,23.52
2017-02-11T02:25:33.915Z,23.48
2017-02-11T02:25:54.328Z,23.52
2017-02-11T02:26:14.734Z,23.5
2017-02-11T02:26:34.459Z,23.52
2017-02-11T02:26:54.852Z,23.53
2017-02-11T02:27:15.259Z,23.52
2017-02-11T02:27:35.640Z,23.56
2017-02-11T02:27:56.050Z,23.5
2017-02-11T02:28:16.480Z,23.55
2017-02-11T02:28:36.873Z,23.5
2017-02-11T02:28:57.229Z,23.63
2017-02-11T02:29:16.980Z,23.65
2017-02-11T02:29:37.416Z,23.65
2017-02-11T02:29:57.853Z,23.58
2017-02-11T02:30:18.249Z,23.72
2017-02-11T02:30:38.661Z,23.68
2017-02-11T02:30:59.091Z,23.71
2017-02-11T02:31:19.528Z,23.71
2017-02-11T02:31:39.952Z,23.7
2017-02-11T02:32:00.362Z,23.61
2017-02-11T02:32:20.779Z,23.6
2017-02-11T02:32:41.185Z,23.67
2017-02-11T02:33:01.571Z,23.6
2017-02-11T02:33:21.960Z,23.63
2017-02-11T02:33:42.391Z,23.64
2017-02-11T02:34:02.806Z,23.48
2017-02-11T02:34:23.210Z,23.45
2017-02-11T02:34:43.596Z,23.52
2017-02-11T02:35:03.990Z,23.5
2017-02-11T02:35:24.425Z,23.4
2017-02-11T02:35:44.757Z,23.42
2017-02-11T02:36:05.159Z,23.45
2017-02-11T02:36:25.570Z,23.46
2017-02-11T02:36:45.989Z,23.5
2017-02-11T02:37:05.724Z,23.46
2017-02-11T02:37:26.113Z,23.45
2017-02-11T02:37:46.553Z,23.46
2017-02-11T02:38:06.980Z,23.43
2017-02-11T02:38:41.136Z,23.6
2017-02-11T02:39:01.528Z,23.48
2017-02-11T02:39:21.265Z,23.61
2017-02-11T02:39:41.678Z,23.7
2017-02-11T02:40:02.045Z,23.61
2017-02-11T02:40:21.140Z,23.63
2017-02-11T02:40:41.561Z,23.61
2017-02-11T02:41:01.951Z,23.65
2017-02-11T02:41:22.341Z,23.65
2017-02-11T02:41:42.726Z,23.65
2017-02-11T02:42:02.501Z,23.75
2017-02-11T02:42:22.920Z,23.65
2017-02-11T02:42:43.301Z,23.63
2017-02-11T02:43:03.682Z,23.65
2017-02-11T02:43:24.082Z,23.68
2017-02-11T02:43:44.489Z,23.67
2017-02-11T02:44:04.923Z,23.67
2017-02-11T02:44:24.677Z,23.61
2017-02-11T02:44:45.087Z,23.55
2017-02-11T02:45:19.399Z,23.5
2017-02-11T02:45:39.825Z,23.52
2017-02-11T02:46:00.198Z,23.5
2017-02-11T02:46:19.990Z,23.5
2017-02-11T02:46:40.429Z,23.56
2017-02-11T02:47:00.865Z,23.52
2017-02-11T02:47:20.592Z,23.6
2017-02-11T02:47:41.000Z,23.55
2017-02-11T02:48:01.421Z,23.48
2017-02-11T02:48:21.801Z,23.55
2017-02-11T02:48:42.157Z,23.56
2017-02-11T02:49:02.528Z,23.52
2017-02-11T02:49:22.883Z,23.46
2017-02-11T02:49:43.247Z,23.45
2017-02-11T02:50:03.637Z,23.4
2017-02-11T02:50:23.127Z,23.35
2017-02-11T02:50:43.535Z,23.4
2017-02-11T02:51:03.928Z,23.43
2017-02-11T02:51:24.318Z,23.43
2017-02-11T02:51:44.718Z,23.42
2017-02-11T02:52:03.790Z,23.4
2017-02-11T02:52:24.157Z,23.45
2017-02-11T02:52:44.521Z,23.42
2017-02-11T02:53:04.903Z,23.43
2017-02-11T02:53:24.682Z,23.43
2017-02-11T02:53:45.107Z,23.5
2017-02-11T02:54:05.513Z,23.42
2017-02-11T02:54:25.912Z,23.45
2017-02-11T02:54:46.305Z,23.42
2017-02-11T02:55:06.677Z,23.4
2017-02-11T02:55:25.815Z,23.45
2017-02-11T02:55:46.195Z,23.46
2017-02-11T02:56:06.581Z,23.35
2017-02-11T02:56:26.967Z,23.35
2017-02-11T02:56:47.374Z,23.35
2017-02-11T02:57:07.784Z,23.38
2017-02-11T02:57:28.219Z,23.4
2017-02-11T02:57:48.585Z,23.33
2017-02-11T02:58:08.325Z,23.35
2017-02-11T02:58:27.434Z,23.34
2017-02-11T02:58:47.827Z,23.42
2017-02-11T02:59:08.205Z,23.34
2017-02-11T02:59:27.923Z,23.35
2017-02-11T02:59:48.332Z,23.43
2017-02-11T03:00:08.100Z,23.43
2017-02-11T03:00:28.496Z,23.33
2017-02-11T03:00:48.927Z,23.33
2017-02-11T03:01:09.365Z,23.37
2017-02-11T03:01:29.108Z,23.42
2017-02-11T03:01:49.535Z,23.5
2017-02-11T03:02:09.923Z,23.37
2017-02-11T03:02:30.275Z,23.45
2017-02-11T03:02:50.705Z,23.45
2017-02-11T03:03:10.459Z,23.43
2017-02-11T03:03:30.858Z,23.35
2017-02-11T03:03:51.248Z,23.45
2017-02-11T03:04:11.665Z,23.43
2017-02-11T03:04:32.082Z,23.34
2017-02-11T03:04:52.461Z,23.35
2017-02-11T03:05:12.851Z,23.29
2017-02-11T03:05:33.397Z,23.31
2017-02-11T03:05:53.769Z,23.29
2017-02-11T03:06:13.516Z,23.29
2017-02-11T03:06:33.942Z,23.26
2017-02-11T03:06:54.325Z,23.34
2017-02-11T03:07:14.753Z,23.29
2017-02-11T03:07:35.154Z,23.31
2017-02-11T03:07:55.549Z,23.18
2017-02-11T03:08:15.265Z,23.22
2017-02-11T03:08:35.688Z,23.22
2017-02-11T03:08:56.074Z,23.29
2017-02-11T03:09:16.487Z,23.38
2017-02-11T03:09:36.883Z,23.31
2017-02-11T03:09:57.292Z,23.37
2017-02-11T03:10:16.424Z,23.4
2017-02-11T03:10:36.321Z,23.35
2017-02-11T03:10:56.728Z,23.4
2017-02-11T03:11:17.159Z,23.42
2017-02-11T03:11:37.577Z,23.37
2017-02-11T03:11:57.965Z,23.4
2017-02-11T03:12:43.771Z,23.37
2017-02-11T03:13:03.518Z,23.48
2017-02-11T03:13:22.638Z,23.53
2017-02-11T03:13:42.432Z,23.58
2017-02-11T03:14:02.811Z,23.55
2017-02-11T03:14:23.224Z,23.53
2017-02-11T03:14:43.645Z,23.5
2017-02-11T03:15:03.411Z,23.58
2017-02-11T03:15:23.166Z,23.43
2017-02-11T03:15:44.491Z,23.56
2017-02-11T03:16:04.897Z,23.52
2017-02-11T03:16:24.709Z,23.48
2017-02-11T03:16:45.100Z,23.52
2017-02-11T03:17:05.477Z,23.56
2017-02-11T03:17:25.849Z,23.46
2017-02-11T03:17:46.274Z,23.46
2017-02-11T03:18:06.660Z,23.6
2017-02-11T03:18:27.086Z,23.63
2017-02-11T03:18:47.491Z,23.61
2017-02-11T03:19:07.353Z,23.65
2017-02-11T03:19:27.772Z,23.64
2017-02-11T03:19:48.161Z,23.6
2017-02-11T03:20:08.577Z,23.61
2017-02-11T03:20:29.023Z,23.61
2017-02-11T03:20:49.476Z,23.49
2017-02-11T03:21:09.888Z,23.56
2017-02-11T03:21:30.309Z,23.5
2017-02-11T03:21:50.735Z,23.45
2017-02-11T03:22:10.473Z,23.4
2017-02-11T03:22:30.872Z,23.43
2017-02-11T03:22:51.291Z,23.5
2017-02-11T03:23:11.016Z,23.45
2017-02-11T03:23:31.411Z,23.43
2017-02-11T03:23:51.796Z,23.46
2017-02-11T03:24:12.776Z,23.46
2017-02-11T03:24:33.154Z,23.42
2017-02-11T03:24:53.529Z,23.43
2017-02-11T03:25:13.932Z,23.4
2017-02-11T03:25:34.313Z,23.45
2017-02-11T03:25:54.703Z,23.5
2017-02-11T03:26:14.487Z,23.45
2017-02-11T03:26:34.863Z,23.38
2017-02-11T03:26:55.264Z,23.35
2017-02-11T03:27:15.652Z,23.37
2017-02-11T03:27:36.087Z,23.37
2017-02-11T03:27:56.459Z,23.38
2017-02-11T03:28:16.211Z,23.4
2017-02-11T03:28:36.624Z,23.38
2017-02-11T03:28:57.065Z,23.4
2017-02-11T03:29:16.842Z,23.35
2017-02-11T03:29:37.217Z,23.37
2017-02-11T03:29:57.629Z,23.4
2017-02-11T03:30:18.035Z,23.37
2017-02-11T03:30:38.397Z,23.35
2017-02-11T03:30:59.015Z,23.4
2017-02-11T03:31:18.755Z,23.34
2017-02-11T03:31:39.130Z,23.43
2017-02-11T03:31:59.557Z,23.42
2017-02-11T03:32:19.308Z,23.46
2017-02-11T03:32:39.729Z,23.42
2017-02-11T03:33:00.099Z,23.4
2017-02-11T03:33:20.500Z,23.42
2017-02-11T03:33:40.944Z,23.38
2017-02-11T03:34:01.325Z,23.35
2017-02-11T03:34:21.066Z,23.33
2017-02-11T03:34:41.494Z,23.38
2017-02-11T03:35:01.893Z,23.42
2017-02-11T03:35:22.298Z,23.4
2017-02-11T03:35:42.814Z,23.38
2017-02-11T03:36:03.253Z,23.45
2017-02-11T03:36:23.657Z,23.45
2017-02-11T03:36:44.067Z,23.4
2017-02-11T03:37:04.457Z,23.5
2017-02-11T03:37:24.203Z,23.4
2017-02-11T03:37:44.559Z,23.43
2017-02-11T03:38:04.966Z,23.42
2017-02-11T03:38:24.695Z,23.4
2017-02-11T03:38:45.086Z,23.38
2017-02-11T03:39:05.589Z,23.46
2017-02-11T03:39:26.005Z,23.5
2017-02-11T03:39:46.885Z,23.53
2017-02-11T03:40:07.377Z,23.55
2017-02-11T03:40:27.828Z,23.46
2017-02-11T03:40:48.249Z,23.55
2017-02-11T03:41:08.670Z,23.49
2017-02-11T03:41:29.032Z,23.52
2017-02-11T03:41:49.411Z,23.5
2017-02-11T03:42:09.811Z,23.5
2017-02-11T03:42:30.233Z,23.53
2017-02-11T03:42:50.618Z,23.46
2017-02-11T03:43:11.006Z,23.52
2017-02-11T03:43:31.396Z,23.52
2017-02-11T03:43:51.786Z,23.49
2017-02-11T03:44:12.205Z,23.52
2017-02-11T03:44:31.947Z,23.48
2017-02-11T03:44:52.374Z,23.61
2017-02-11T03:45:12.094Z,23.49
2017-02-11T03:45:32.512Z,23.52
2017-02-11T03:45:52.929Z,23.53
2017-02-11T03:46:13.336Z,23.5
2017-02-11T03:46:33.128Z,23.5
2017-02-11T03:46:53.540Z,23.53
2017-02-11T03:47:13.945Z,23.58
2017-02-11T03:47:34.312Z,23.52
2017-02-11T03:47:54.728Z,23.5
2017-02-11T03:48:14.471Z,23.56
2017-02-11T03:48:34.866Z,23.48
2017-02-11T03:48:55.291Z,23.46
2017-02-11T03:49:15.672Z,23.53
2017-02-11T03:49:36.085Z,23.37
2017-02-11T03:49:55.962Z,23.45
2017-02-11T03:50:16.396Z,23.46
2017-02-11T03:50:36.924Z,23.4
2017-02-11T03:50:57.301Z,23.46
2017-02-11T03:51:17.679Z,23.33
2017-02-11T03:51:38.057Z,23.4
2017-02-11T03:51:57.820Z,23.38
2017-02-11T03:52:16.937Z,23.37
2017-02-11T03:52:37.505Z,23.37
2017-02-11T03:52:57.893Z,23.45
2017-02-11T03:53:18.309Z,23.46
2017-02-11T03:53:38.717Z,23.35
2017-02-11T03:53:59.143Z,23.38
2017-02-11T03:54:18.943Z,23.45
2017-02-11T03:54:39.336Z,23.4
2017-02-11T03:54:59.737Z,23.4
2017-02-11T03:55:19.517Z,23.49
2017-02-11T03:55:39.914Z,23.43
2017-02-11T03:56:00.342Z,23.43
2017-02-11T03:56:20.710Z,23.38
2017-02-11T03:56:41.114Z,23.43
2017-02-11T03:57:00.875Z,23.34
2017-02-11T03:57:21.250Z,23.35
2017-02-11T03:57:42.134Z,23.33
2017-02-11T03:58:02.612Z,23.27
2017-02-11T03:58:24.688Z,23.2
2017-02-11T03:58:45.161Z,23.26
2017-02-11T03:59:04.914Z,23.09
2017-02-11T03:59:24.690Z,23.12
2017-02-11T03:59:45.096Z,23.14
2017-02-11T04:00:24.549Z,23.07
2017-02-11T04:00:44.934Z,23.11
2017-02-11T04:01:05.315Z,23.14
2017-02-11T04:01:24.449Z,23.22
2017-02-11T04:01:44.838Z,23.2
2017-02-11T04:02:05.241Z,23.22
2017-02-11T04:02:25.004Z,23.22
2017-02-11T04:02:45.425Z,23.23
2017-02-11T04:03:04.551Z,23.23
2017-02-11T04:03:24.295Z,23.22
2017-02-11T04:03:44.693Z,23.17
2017-02-11T04:04:05.090Z,23.14
2017-02-11T04:04:24.832Z,23.05
2017-02-11T04:04:45.213Z,23.12
2017-02-11T04:05:05.698Z,23.14
2017-02-11T04:05:24.839Z,23.07
2017-02-11T04:05:45.280Z,23.08
2017-02-11T04:06:06.159Z,23.09
2017-02-11T04:06:26.578Z,23.11
2017-02-11T04:06:46.936Z,23.11
2017-02-11T04:07:06.660Z,23.09
2017-02-11T04:07:27.111Z,23.05
2017-02-11T04:07:47.827Z,23.11
2017-02-11T04:08:08.660Z,23.12
2017-02-11T04:08:29.072Z,23.07
2017-02-11T04:08:49.487Z,23.09
2017-02-11T04:09:09.941Z,23.22
2017-02-11T04:09:30.383Z,23.2
2017-02-11T04:09:50.792Z,23.22
2017-02-11T04:10:10.569Z,23.29
2017-02-11T04:10:30.987Z,23.22
2017-02-11T04:10:51.357Z,23.29
2017-02-11T04:11:11.118Z,23.27
2017-02-11T04:11:31.501Z,23.17
2017-02-11T04:11:51.892Z,23.27
2017-02-11T04:12:12.310Z,23.34
2017-02-11T04:12:32.684Z,23.24
2017-02-11T04:12:53.108Z,23.22
2017-02-11T04:13:13.521Z,23.24
2017-02-11T04:13:33.939Z,23.18
2017-02-11T04:13:53.697Z,23.23
2017-02-11T04:14:14.119Z,23.22
2017-02-11T04:14:33.897Z,23.22
2017-02-11T04:14:54.304Z,23.24
2017-02-11T04:15:14.742Z,23.24
2017-02-11T04:15:35.159Z,23.24
2017-02-11T04:16:04.482Z,23.24
2017-02-11T04:16:30.724Z,23.24
2017-02-11T04:16:51.119Z,23.33
2017-02-11T04:17:10.832Z,23.22
2017-02-11T04:17:31.254Z,23.23
2017-02-11T04:17:51.655Z,23.22
2017-02-11T04:18:12.067Z,23.2
2017-02-11T04:18:32.483Z,23.24
2017-02-11T04:18:52.899Z,23.2
2017-02-11T04:19:13.307Z,23.18
2017-02-11T04:19:33.695Z,23.17
2017-02-11T04:19:54.103Z,23.2
2017-02-11T04:20:13.892Z,23.11
2017-02-11T04:20:34.274Z,23.2
2017-02-11T04:20:54.675Z,23.23
2017-02-11T04:21:15.076Z,23.23
2017-02-11T04:21:35.504Z,23.26
2017-02-11T04:21:55.927Z,23.33
2017-02-11T04:22:15.835Z,23.27
2017-02-11T04:22:36.353Z,23.26
2017-02-11T04:22:56.776Z,23.24
2017-02-11T04:23:36.358Z,23.17
2017-02-11T04:23:56.719Z,23.18
2017-02-11T04:24:17.147Z,23.12
2017-02-11T04:24:37.577Z,23.2
2017-02-11T04:24:57.973Z,23.17
2017-02-11T04:25:18.386Z,23.18
2017-02-11T04:25:38.790Z,23.23
2017-02-11T04:25:59.223Z,23.24
2017-02-11T04:26:19.587Z,23.27
2017-02-11T04:26:40.023Z,23.22
2017-02-11T04:27:00.415Z,23.26
2017-02-11T04:27:19.517Z,23.24